createdAt,value
2024-03-22T01:55:49.933Z,41.30
2024-03-22T01:58:20.978Z,19.50
2024-03-22T02:00:52.726Z,17.30
2024-03-22T02:03:23.357Z,18.80
2024-03-22T02:05:55.108Z,17.00
2024-03-22T02:08:25.950Z,15.20
2024-03-22T02:10:57.505Z,16.30
2024-03-22T02:13:28.150Z,16.70
2024-03-22T02:15:59.690Z,13.50
2024-03-22T02:18:30.329Z,11.00
2024-03-22T02:21:01.773Z,13.30
2024-03-22T02:23:42.020Z,14.50
2024-03-22T02:26:13.887Z,12.70
2024-03-22T02:28:44.212Z,12.50
2024-03-22T02:31:16.317Z,12.30
2024-03-22T02:33:46.815Z,9.90
2024-03-22T02:36:18.844Z,10.40
2024-03-22T02:38:49.193Z,8.70
2024-03-22T02:41:21.367Z,10.50
2024-03-22T02:43:51.792Z,9.90
2024-03-22T02:46:23.245Z,9.50
2024-03-22T02:48:53.976Z,8.30
2024-03-22T02:51:25.732Z,8.90
2024-03-22T02:53:56.543Z,9.80
2024-03-22T02:58:58.962Z,9.90
2024-03-22T03:01:31.031Z,9.30
2024-03-22T03:04:01.465Z,8.20
2024-03-22T03:06:33.106Z,9.70
2024-03-22T03:09:05.935Z,8.50
2024-03-22T03:11:40.432Z,9.20
2024-03-22T03:14:10.739Z,9.90
2024-03-22T03:16:42.590Z,8.50
2024-03-22T03:19:12.809Z,8.10
2024-03-22T03:21:44.778Z,8.10
2024-03-22T03:24:15.105Z,8.80
2024-03-22T03:26:47.267Z,8.00
2024-03-22T03:29:17.486Z,7.60
2024-03-22T03:31:50.306Z,9.00
2024-03-22T03:34:21.825Z,7.20
2024-03-22T03:36:53.475Z,6.80
2024-03-22T03:39:24.827Z,6.70
2024-03-22T03:44:27.313Z,9.10
2024-03-22T03:46:59.073Z,7.50
2024-03-22T03:49:29.711Z,7.00
2024-03-22T03:52:01.252Z,6.50
2024-03-22T03:54:31.887Z,7.40
2024-03-22T03:57:03.750Z,8.00
2024-03-22T03:59:34.273Z,7.70
2024-03-22T04:02:06.319Z,7.40
2024-03-22T04:04:36.777Z,7.10
2024-03-22T04:07:08.523Z,7.00
2024-03-22T04:09:38.851Z,7.10
2024-03-22T04:12:11.099Z,7.60
2024-03-22T04:14:41.666Z,8.50
2024-03-22T04:17:13.715Z,7.30
2024-03-22T04:19:44.138Z,8.00
2024-03-22T04:22:16.011Z,7.30
2024-03-22T04:24:46.828Z,7.50
2024-03-22T04:29:49.331Z,6.40
2024-03-22T04:32:21.407Z,10.70
2024-03-22T04:34:51.815Z,9.50
2024-03-22T04:37:23.714Z,9.60
2024-03-22T04:39:54.207Z,9.50
2024-03-22T04:42:25.971Z,9.00
2024-03-22T04:44:56.288Z,8.40
2024-03-22T04:47:28.283Z,10.30
2024-03-22T04:49:58.888Z,9.30
2024-03-22T04:52:30.439Z,8.80
2024-03-22T04:55:03.070Z,10.10
2024-03-22T04:57:34.564Z,8.60
2024-03-22T05:00:08.477Z,10.20
2024-03-22T05:02:41.492Z,8.50
2024-03-22T05:05:13.700Z,13.70
2024-03-22T05:07:45.280Z,9.10
2024-03-22T05:10:17.982Z,10.50
2024-03-22T05:12:50.230Z,11.20
2024-03-22T05:15:20.974Z,9.10
2024-03-22T05:17:53.033Z,9.60
2024-03-22T05:20:23.571Z,13.20
2024-03-22T05:22:55.899Z,11.80
2024-03-22T05:25:29.505Z,11.60
2024-03-22T05:28:02.276Z,11.90
2024-03-22T05:30:33.051Z,8.40
2024-03-22T05:33:05.109Z,10.70
2024-03-22T05:35:35.748Z,11.30
2024-03-22T05:38:07.499Z,10.70
2024-03-22T05:40:39.987Z,9.90
2024-03-22T05:43:11.941Z,11.60
2024-03-22T05:45:42.162Z,11.00
2024-03-22T05:48:14.221Z,9.70
2024-03-22T05:50:44.457Z,12.80
2024-03-22T05:53:16.217Z,11.10
2024-03-22T05:55:46.536Z,12.70
2024-03-22T05:58:19.213Z,12.10
2024-03-22T06:00:49.640Z,9.60
2024-03-22T06:03:21.700Z,11.10
2024-03-22T06:05:56.324Z,11.40
2024-03-22T06:08:28.407Z,12.10
2024-03-22T06:10:58.709Z,11.10
2024-03-22T06:13:33.080Z,13.40
2024-03-22T06:16:04.858Z,13.50
2024-03-22T06:18:36.759Z,13.20
2024-03-22T06:21:07.380Z,18.30
2024-03-22T06:23:39.443Z,12.70
2024-03-22T06:26:09.779Z,14.60
2024-03-22T06:28:41.643Z,11.30
2024-03-22T06:31:12.058Z,14.30
2024-03-22T06:33:43.896Z,12.30
2024-03-22T06:36:14.346Z,11.40
2024-03-22T06:38:45.996Z,12.30
2024-03-22T06:41:16.540Z,11.20
2024-03-22T06:43:48.286Z,11.60
2024-03-22T06:46:18.715Z,14.20
2024-03-22T06:48:50.591Z,14.40
2024-03-22T06:51:21.098Z,12.50
2024-03-22T06:53:53.558Z,11.00
2024-03-22T06:56:24.515Z,12.00
2024-03-22T06:58:56.685Z,12.70
2024-03-22T07:01:27.206Z,14.30
2024-03-22T07:03:58.872Z,14.40
2024-03-22T07:06:29.597Z,11.70
2024-03-22T07:09:01.258Z,13.10
2024-03-22T07:11:33.305Z,10.90
2024-03-22T07:14:04.877Z,15.50
2024-03-22T07:16:35.497Z,13.40
2024-03-22T07:19:07.268Z,13.50
2024-03-22T07:21:37.683Z,13.90
2024-03-22T07:24:09.251Z,12.70
2024-03-22T07:26:40.070Z,12.50
2024-03-22T07:31:42.847Z,11.10
2024-03-22T07:34:14.554Z,11.90
2024-03-22T07:36:45.165Z,12.00
2024-03-22T07:39:16.914Z,10.90
2024-03-22T07:41:47.676Z,11.70
2024-03-22T07:44:20.953Z,12.40
2024-03-22T07:46:51.499Z,11.90
2024-03-22T07:49:23.143Z,13.70
2024-03-22T07:51:54.374Z,13.70
2024-03-22T07:54:25.947Z,10.80
2024-03-22T07:56:56.896Z,10.10
2024-03-22T07:59:28.717Z,11.10
2024-03-22T08:01:59.263Z,10.80
2024-03-22T08:04:31.400Z,12.00
2024-03-22T08:07:02.685Z,11.80
2024-03-22T08:09:35.052Z,12.00
2024-03-22T08:12:05.978Z,9.60
2024-03-22T08:14:38.045Z,11.20
2024-03-22T08:17:10.423Z,11.30
2024-03-22T08:19:42.621Z,11.50
2024-03-22T08:22:13.113Z,10.40
2024-03-22T08:24:44.975Z,11.40
2024-03-22T08:27:15.502Z,11.00
2024-03-22T08:29:48.819Z,12.30
2024-03-22T08:32:19.997Z,10.50
2024-03-22T08:34:51.763Z,10.20
2024-03-22T08:37:22.374Z,10.80
2024-03-22T08:42:24.621Z,10.80
2024-03-22T08:47:27.227Z,11.60
2024-03-22T08:49:59.428Z,8.30
2024-03-22T08:52:31.436Z,10.70
2024-03-22T08:55:05.792Z,10.80
2024-03-22T08:57:39.442Z,9.50
2024-03-22T09:00:14.029Z,10.90
2024-03-22T09:02:44.408Z,12.00
2024-03-22T09:05:16.678Z,9.40
2024-03-22T09:07:47.505Z,9.10
2024-03-22T09:10:20.893Z,8.70
2024-03-22T09:12:51.444Z,10.80
2024-03-22T09:15:23.411Z,9.80
2024-03-22T09:17:54.095Z,11.30
2024-03-22T09:22:56.533Z,9.20
2024-03-22T09:25:28.956Z,12.10
2024-03-22T09:27:59.328Z,9.00
2024-03-22T09:30:38.630Z,10.20
2024-03-22T09:33:13.794Z,9.90
2024-03-22T09:35:45.931Z,9.30
2024-03-22T09:38:17.622Z,9.50
2024-03-22T09:40:48.051Z,9.80
2024-03-22T09:45:53.406Z,10.10
2024-03-22T09:48:25.470Z,8.90
2024-03-22T09:50:56.511Z,9.10
2024-03-22T09:53:28.417Z,9.30
2024-03-22T09:55:59.413Z,9.00
2024-03-22T09:58:31.070Z,11.30
2024-03-22T10:01:01.796Z,8.70
2024-03-22T10:06:04.043Z,8.30
2024-03-22T10:08:35.742Z,8.70
2024-03-22T10:11:06.275Z,7.90
2024-03-22T10:16:08.822Z,9.10
2024-03-22T10:18:40.526Z,8.30
2024-03-22T10:21:11.155Z,8.40
2024-03-22T10:26:13.164Z,9.70
2024-03-22T10:28:48.678Z,9.70
2024-03-22T10:31:22.131Z,9.80
2024-03-22T10:33:52.739Z,10.00
2024-03-22T10:36:24.904Z,9.10
2024-03-22T10:38:56.234Z,8.40
2024-03-22T10:41:28.174Z,8.30
2024-03-22T10:43:59.601Z,9.20
2024-03-22T10:46:32.113Z,10.50
2024-03-22T10:49:05.430Z,8.10
2024-03-22T10:51:37.471Z,8.90
2024-03-22T10:54:07.798Z,8.00
2024-03-22T10:56:39.747Z,8.00
2024-03-22T10:59:10.286Z,8.00
2024-03-22T11:01:46.863Z,6.80
2024-03-22T11:04:19.023Z,8.50
2024-03-22T11:06:52.728Z,7.80
2024-03-22T11:09:26.663Z,8.60
2024-03-22T11:12:01.668Z,6.90
2024-03-22T11:14:33.467Z,7.20
2024-03-22T11:17:04.464Z,6.30
2024-03-22T11:19:36.223Z,5.50
2024-03-22T11:22:09.575Z,7.40
2024-03-22T11:24:41.272Z,7.60
2024-03-22T11:27:15.320Z,6.60
2024-03-22T11:29:48.041Z,6.60
2024-03-22T11:32:18.595Z,6.70
2024-03-22T11:34:50.457Z,7.70
2024-03-22T11:37:20.669Z,5.90
2024-03-22T11:39:53.049Z,6.70
2024-03-22T11:42:23.476Z,12.70
2024-03-22T11:44:55.446Z,8.20
2024-03-22T11:47:25.968Z,7.40
2024-03-22T11:49:57.822Z,7.20
2024-03-22T11:52:28.356Z,7.50
2024-03-22T11:55:00.015Z,14.40
2024-03-22T11:57:30.742Z,8.60
2024-03-22T12:00:15.172Z,8.00
2024-03-22T12:02:54.127Z,6.80
2024-03-22T12:05:24.550Z,7.50
2024-03-22T12:07:56.510Z,7.00
2024-03-22T12:10:26.673Z,8.00
2024-03-22T12:12:58.692Z,6.70
2024-03-22T12:15:29.636Z,7.20
2024-03-22T12:18:01.315Z,8.30
2024-03-22T12:20:31.925Z,7.80
2024-03-22T12:23:04.210Z,7.90
2024-03-22T12:25:34.814Z,7.90
2024-03-22T12:28:07.188Z,6.80
2024-03-22T12:30:37.633Z,6.40
2024-03-22T12:33:11.737Z,7.60
2024-03-22T12:35:42.562Z,5.30
2024-03-22T12:38:15.044Z,5.20
2024-03-22T12:40:45.466Z,5.80
2024-03-22T12:43:18.457Z,6.00
2024-03-22T12:45:48.887Z,5.50
2024-03-22T12:48:20.645Z,4.70
2024-03-22T12:50:51.268Z,5.50
2024-03-22T12:53:23.028Z,5.90
2024-03-22T12:55:53.455Z,6.60
2024-03-22T12:58:25.213Z,5.80
2024-03-22T13:00:55.733Z,8.70
2024-03-22T13:03:28.511Z,5.30
2024-03-22T13:05:58.841Z,5.50
2024-03-22T13:08:30.604Z,12.60
2024-03-22T13:11:01.137Z,7.00
2024-03-22T13:13:32.897Z,5.90
2024-03-22T13:16:04.091Z,5.80
2024-03-22T13:18:35.998Z,6.00
2024-03-22T13:21:06.941Z,5.30
2024-03-22T13:23:39.210Z,5.70
2024-03-22T13:26:09.633Z,5.50
2024-03-22T13:28:43.358Z,6.30
2024-03-22T13:31:14.093Z,5.50
2024-03-22T13:33:45.644Z,5.00
2024-03-22T13:36:16.361Z,6.40
2024-03-22T13:41:18.456Z,11.10
2024-03-22T13:46:20.413Z,5.10
2024-03-22T13:48:51.872Z,5.70
2024-03-22T13:51:22.892Z,5.00
2024-03-22T13:53:54.360Z,8.70
2024-03-22T13:56:27.674Z,24.70
2024-03-22T13:58:59.740Z,22.90
2024-03-22T14:01:31.116Z,9.10
2024-03-22T14:04:04.394Z,5.30
2024-03-22T14:06:35.139Z,4.80
2024-03-22T14:09:09.222Z,24.40
2024-03-22T14:11:40.464Z,36.30
2024-03-22T14:14:15.276Z,6.80
2024-03-22T14:16:48.192Z,5.50
2024-03-22T14:19:20.273Z,5.70
2024-03-22T14:21:52.211Z,6.10
2024-03-22T14:24:22.620Z,7.00
2024-03-22T14:26:54.373Z,23.90
2024-03-22T14:29:25.114Z,15.60
2024-03-22T14:34:27.711Z,19.10
2024-03-22T14:36:59.461Z,20.90
2024-03-22T14:39:30.406Z,19.40
2024-03-22T14:42:02.073Z,14.10
2024-03-22T14:44:32.810Z,14.60
2024-03-22T14:49:36.412Z,22.00
2024-03-22T14:52:08.474Z,16.10
2024-03-22T14:54:39.004Z,21.00
2024-03-22T14:57:11.167Z,17.30
2024-03-22T14:59:41.590Z,19.80
2024-03-22T15:02:13.730Z,12.00
2024-03-22T15:04:44.824Z,11.40
2024-03-22T15:07:17.277Z,14.80
2024-03-22T15:09:47.801Z,21.50
2024-03-22T15:12:19.465Z,17.10
2024-03-22T15:14:54.468Z,16.10
2024-03-22T15:17:26.214Z,16.00
2024-03-22T15:19:57.193Z,47.00
2024-03-22T15:22:29.426Z,52.10
2024-03-22T15:25:00.711Z,25.80
2024-03-22T15:27:32.674Z,49.60
2024-03-22T15:30:03.098Z,85.70
2024-03-22T15:32:35.269Z,141.00
2024-03-22T15:35:06.211Z,182.60
2024-03-22T15:37:38.762Z,97.20
2024-03-22T15:40:12.285Z,146.80
2024-03-22T15:42:44.341Z,87.50
2024-03-22T15:45:14.870Z,90.30
2024-03-22T15:47:46.728Z,64.50
2024-03-22T15:50:17.325Z,31.90
2024-03-22T15:52:49.232Z,81.00
2024-03-22T15:55:19.763Z,25.50
2024-03-22T15:57:53.972Z,35.20
2024-03-22T16:00:24.588Z,57.80
2024-03-22T16:02:57.379Z,41.60
2024-03-22T16:05:27.706Z,40.40
2024-03-22T16:07:59.668Z,38.60
2024-03-22T16:10:30.000Z,47.60
2024-03-22T16:13:02.153Z,57.00
2024-03-22T16:15:32.496Z,45.70
2024-03-22T16:20:35.380Z,58.80
2024-03-22T16:23:09.998Z,67.20
2024-03-22T16:25:43.690Z,38.00
2024-03-22T16:28:14.339Z,45.20
2024-03-22T16:30:45.814Z,45.30
2024-03-22T16:33:16.318Z,37.00
2024-03-22T16:35:48.194Z,28.50
2024-03-22T16:38:18.403Z,41.70
2024-03-22T16:40:50.370Z,32.00
2024-03-22T16:43:21.195Z,29.60
2024-03-22T16:45:52.853Z,28.60
2024-03-22T16:48:23.277Z,29.60
2024-03-22T16:50:55.648Z,40.40
2024-03-22T16:53:26.593Z,42.70
2024-03-22T16:55:58.465Z,40.30
2024-03-22T16:58:29.092Z,41.40
2024-03-22T17:03:41.107Z,58.50
2024-03-22T17:06:18.277Z,75.00
2024-03-22T17:08:53.523Z,55.00
2024-03-22T17:11:25.095Z,54.90
2024-03-22T17:13:58.169Z,58.10
2024-03-22T17:16:28.689Z,47.00
2024-03-22T17:19:00.465Z,52.10
2024-03-22T17:21:30.980Z,85.30
2024-03-22T17:24:02.735Z,81.40
2024-03-22T17:26:33.266Z,64.20
2024-03-22T17:29:05.570Z,72.70
2024-03-22T17:31:39.686Z,91.70
2024-03-22T17:34:12.018Z,72.10
2024-03-22T17:36:42.645Z,64.90
2024-03-22T17:39:15.494Z,74.30
2024-03-22T17:41:45.971Z,68.60
2024-03-22T17:44:17.834Z,55.00
2024-03-22T17:46:48.243Z,57.90
2024-03-22T17:49:20.117Z,57.80
2024-03-22T17:51:50.557Z,51.40
2024-03-22T17:54:22.497Z,53.20
2024-03-22T17:56:52.818Z,48.90
2024-03-22T17:59:24.791Z,56.00
2024-03-22T18:01:56.340Z,54.50
2024-03-22T18:04:28.193Z,50.10
2024-03-22T18:07:02.010Z,48.90
2024-03-22T18:09:34.279Z,40.20
2024-03-22T18:12:05.867Z,38.10
2024-03-22T18:14:37.585Z,35.10
2024-03-22T18:17:08.420Z,41.60
2024-03-22T18:19:40.382Z,37.60
2024-03-22T18:22:10.824Z,36.80
2024-03-22T18:24:42.870Z,40.80
2024-03-22T18:27:13.317Z,32.00
2024-03-22T18:29:45.158Z,32.00
2024-03-22T18:32:15.591Z,32.10
2024-03-22T18:34:47.225Z,29.40
2024-03-22T18:37:20.037Z,32.10
2024-03-22T18:39:51.977Z,46.90
2024-03-22T18:42:22.476Z,65.20
2024-03-22T18:44:54.473Z,44.10
2024-03-22T18:47:25.819Z,46.40
2024-03-22T18:49:57.596Z,34.20
2024-03-22T18:52:28.111Z,29.60
2024-03-22T18:55:02.547Z,33.10
2024-03-22T18:57:36.502Z,57.20
2024-03-22T19:00:07.799Z,33.00
2024-03-22T19:02:41.357Z,40.70
2024-03-22T19:05:11.615Z,47.80
2024-03-22T19:07:43.389Z,56.20
2024-03-22T19:10:14.914Z,80.00
2024-03-22T19:12:46.981Z,41.90
2024-03-22T19:15:17.327Z,73.00
2024-03-22T19:17:49.275Z,60.60
2024-03-22T19:20:19.597Z,69.60
2024-03-22T19:22:51.561Z,59.80
2024-03-22T19:25:23.621Z,85.50
2024-03-22T19:27:55.492Z,70.70
2024-03-22T19:30:26.139Z,60.20
2024-03-22T19:32:57.870Z,48.50
2024-03-22T19:35:29.118Z,55.10
2024-03-22T19:38:01.292Z,46.30
2024-03-22T19:40:31.816Z,58.50
2024-03-22T19:43:04.904Z,54.10
2024-03-22T19:45:35.742Z,63.20
2024-03-22T19:48:07.930Z,97.10
2024-03-22T19:50:38.634Z,40.90
2024-03-22T19:53:10.202Z,60.50
2024-03-22T19:55:40.826Z,82.10
2024-03-22T19:58:12.580Z,71.90
2024-03-22T20:00:43.107Z,141.30
2024-03-22T20:03:15.416Z,82.60
2024-03-22T20:05:47.251Z,44.50
2024-03-22T20:08:20.445Z,89.50
2024-03-22T20:10:50.865Z,92.20
2024-03-22T20:13:22.523Z,49.80
2024-03-22T20:15:53.174Z,52.40
2024-03-22T20:18:26.444Z,54.70
2024-03-22T20:20:57.851Z,52.20
2024-03-22T20:23:29.740Z,44.50
2024-03-22T20:26:00.284Z,38.10
2024-03-22T20:28:31.827Z,41.80
2024-03-22T20:31:02.690Z,42.30
2024-03-22T20:33:34.417Z,60.30
2024-03-22T20:36:05.539Z,81.20
2024-03-22T20:38:37.237Z,59.90
2024-03-22T20:41:07.444Z,47.40
2024-03-22T20:43:38.991Z,67.50
2024-03-22T20:46:09.532Z,66.80
2024-03-22T20:48:40.976Z,64.80
2024-03-22T20:51:13.783Z,111.20
2024-03-22T20:53:45.427Z,53.60
2024-03-22T20:56:16.153Z,63.50
2024-03-22T20:58:47.710Z,62.20
2024-03-22T21:01:19.900Z,77.70
2024-03-22T21:03:51.423Z,59.40
2024-03-22T21:06:22.158Z,52.90
2024-03-22T21:08:53.813Z,46.40
2024-03-22T21:11:24.573Z,43.80
2024-03-22T21:13:56.303Z,47.90
2024-03-22T21:16:26.834Z,42.70
2024-03-22T21:18:58.690Z,46.20
2024-03-22T21:21:29.321Z,55.20
2024-03-22T21:24:01.077Z,39.80
2024-03-22T21:26:31.604Z,55.30
2024-03-22T21:29:03.362Z,42.40
2024-03-22T21:31:34.295Z,43.50
2024-03-22T21:34:06.072Z,85.30
2024-03-22T21:36:36.789Z,79.60
2024-03-22T21:39:12.254Z,91.50
2024-03-22T21:41:45.055Z,61.80
2024-03-22T21:44:15.451Z,78.60
2024-03-22T21:46:47.616Z,87.70
2024-03-22T21:49:18.036Z,86.70
2024-03-22T21:51:49.797Z,69.10
2024-03-22T21:54:21.751Z,86.00
2024-03-22T21:56:53.409Z,57.50
2024-03-22T21:59:23.943Z,42.70
2024-03-22T22:01:55.998Z,39.30
2024-03-22T22:04:26.430Z,47.10
2024-03-22T22:06:58.194Z,44.60
2024-03-22T22:09:28.938Z,46.10
2024-03-22T22:12:00.579Z,39.20
2024-03-22T22:14:31.310Z,39.00
2024-03-22T22:17:02.869Z,36.50
2024-03-22T22:19:33.390Z,33.30
2024-03-22T22:22:04.947Z,28.80
2024-03-22T22:24:35.580Z,30.00
2024-03-22T22:27:07.212Z,41.80
2024-03-22T22:29:38.280Z,38.80
2024-03-22T22:32:10.140Z,42.50
2024-03-22T22:34:40.459Z,35.60
2024-03-22T22:37:11.906Z,35.30
2024-03-22T22:39:42.445Z,34.70
2024-03-22T22:42:14.008Z,35.10
2024-03-22T22:44:44.664Z,33.10
2024-03-22T22:47:16.180Z,34.40
2024-03-22T22:49:46.702Z,38.20
2024-03-22T22:52:18.366Z,24.60
2024-03-22T22:54:49.090Z,31.90
2024-03-22T22:57:20.766Z,31.00
2024-03-22T22:59:51.482Z,30.30
2024-03-22T23:02:23.251Z,32.70
2024-03-22T23:04:53.669Z,30.00
2024-03-22T23:07:25.425Z,31.10
2024-03-22T23:09:55.950Z,33.50
2024-03-22T23:12:27.815Z,36.70
2024-03-22T23:14:58.653Z,40.00
2024-03-22T23:17:30.419Z,54.00
2024-03-22T23:20:00.844Z,55.10
2024-03-22T23:22:32.712Z,63.20
2024-03-22T23:25:03.854Z,69.00
2024-03-22T23:27:36.124Z,70.60
2024-03-22T23:30:06.783Z,57.20
2024-03-22T23:32:38.403Z,40.60
2024-03-22T23:35:08.814Z,43.80
2024-03-22T23:37:41.195Z,43.70
2024-03-22T23:40:11.621Z,41.70
2024-03-22T23:42:43.782Z,45.20
2024-03-22T23:45:14.336Z,47.80
2024-03-22T23:47:45.967Z,40.60
2024-03-22T23:50:16.413Z,45.60
2024-03-22T23:52:48.143Z,39.80
2024-03-22T23:55:18.990Z,34.00
